sensor_id;sensor_type;location;lat;lon;timestamp;P1;durP1;ratioP1;P2;durP2;ratioP2
17727;SDS011;8984;49.268;12.302;2023-06-22T00:00:46;9.27;;;5.35;;
17727;SDS011;8984;49.268;12.302;2023-06-22T00:03:14;5.97;;;5.03;;
17727;SDS011;8984;49.268;12.302;2023-06-22T00:05:41;6.90;;;4.95;;
17727;SDS011;8984;49.268;12.302;2023-06-22T00:08:08;10.27;;;5.63;;
17727;SDS011;8984;49.268;12.302;2023-06-22T00:10:35;6.82;;;4.90;;
17727;SDS011;8984;49.268;12.302;2023-06-22T00:13:02;10.02;;;5.97;;
17727;SDS011;8984;49.268;12.302;2023-06-22T00:15:30;7.82;;;5.68;;
17727;SDS011;8984;49.268;12.302;2023-06-22T00:17:57;6.93;;;5.55;;
17727;SDS011;8984;49.268;12.302;2023-06-22T00:20:25;7.38;;;5.20;;
17727;SDS011;8984;49.268;12.302;2023-06-22T00:22:52;6.00;;;5.38;;
17727;SDS011;8984;49.268;12.302;2023-06-22T00:25:19;12.13;;;5.55;;
17727;SDS011;8984;49.268;12.302;2023-06-22T00:27:46;5.82;;;5.20;;
17727;SDS011;8984;49.268;12.302;2023-06-22T00:30:13;8.68;;;5.68;;
17727;SDS011;8984;49.268;12.302;2023-06-22T00:32:42;9.07;;;5.90;;
17727;SDS011;8984;49.268;12.302;2023-06-22T00:35:10;9.68;;;6.13;;
17727;SDS011;8984;49.268;12.302;2023-06-22T00:37:37;10.05;;;6.82;;
17727;SDS011;8984;49.268;12.302;2023-06-22T00:40:07;8.52;;;6.18;;
17727;SDS011;8984;49.268;12.302;2023-06-22T00:42:36;8.55;;;6.13;;
17727;SDS011;8984;49.268;12.302;2023-06-22T00:45:04;10.48;;;6.45;;
17727;SDS011;8984;49.268;12.302;2023-06-22T00:47:31;12.13;;;6.20;;
17727;SDS011;8984;49.268;12.302;2023-06-22T00:50:01;8.00;;;5.45;;
17727;SDS011;8984;49.268;12.302;2023-06-22T00:52:28;7.65;;;5.55;;
17727;SDS011;8984;49.268;12.302;2023-06-22T00:54:58;10.40;;;5.82;;
17727;SDS011;8984;49.268;12.302;2023-06-22T00:57:27;13.07;;;6.07;;
17727;SDS011;8984;49.268;12.302;2023-06-22T00:59:55;7.30;;;5.72;;
17727;SDS011;8984;49.268;12.302;2023-06-22T01:02:22;7.78;;;6.30;;
17727;SDS011;8984;49.268;12.302;2023-06-22T01:04:48;8.70;;;6.38;;
17727;SDS011;8984;49.268;12.302;2023-06-22T01:07:18;8.55;;;5.70;;
17727;SDS011;8984;49.268;12.302;2023-06-22T01:09:54;9.25;;;6.18;;
17727;SDS011;8984;49.268;12.302;2023-06-22T01:12:25;8.02;;;5.93;;
17727;SDS011;8984;49.268;12.302;2023-06-22T01:14:57;9.10;;;6.68;;
17727;SDS011;8984;49.268;12.302;2023-06-22T01:17:29;9.02;;;6.28;;
17727;SDS011;8984;49.268;12.302;2023-06-22T01:19:58;9.52;;;6.05;;
17727;SDS011;8984;49.268;12.302;2023-06-22T01:22:33;8.07;;;6.10;;
17727;SDS011;8984;49.268;12.302;2023-06-22T01:25:12;7.45;;;6.20;;
17727;SDS011;8984;49.268;12.302;2023-06-22T01:27:47;13.40;;;7.22;;
17727;SDS011;8984;49.268;12.302;2023-06-22T01:30:27;37.10;;;9.52;;
17727;SDS011;8984;49.268;12.302;2023-06-22T01:32:56;17.48;;;8.40;;
17727;SDS011;8984;49.268;12.302;2023-06-22T01:35:24;49.20;;;10.68;;
17727;SDS011;8984;49.268;12.302;2023-06-22T01:37:52;52.75;;;9.93;;
17727;SDS011;8984;49.268;12.302;2023-06-22T01:40:19;109.03;;;11.27;;
17727;SDS011;8984;49.268;12.302;2023-06-22T01:42:47;29.35;;;8.45;;
17727;SDS011;8984;49.268;12.302;2023-06-22T01:45:16;22.80;;;8.48;;
17727;SDS011;8984;49.268;12.302;2023-06-22T01:47:46;12.55;;;8.48;;
17727;SDS011;8984;49.268;12.302;2023-06-22T01:50:13;24.00;;;9.55;;
17727;SDS011;8984;49.268;12.302;2023-06-22T01:52:40;23.40;;;9.33;;
17727;SDS011;8984;49.268;12.302;2023-06-22T01:55:07;22.58;;;9.38;;
17727;SDS011;8984;49.268;12.302;2023-06-22T01:57:34;76.25;;;10.73;;
17727;SDS011;8984;49.268;12.302;2023-06-22T02:00:03;36.63;;;9.55;;
17727;SDS011;8984;49.268;12.302;2023-06-22T02:02:33;69.88;;;11.15;;
17727;SDS011;8984;49.268;12.302;2023-06-22T02:05:06;11.55;;;9.57;;
17727;SDS011;8984;49.268;12.302;2023-06-22T02:07:37;18.35;;;10.50;;
17727;SDS011;8984;49.268;12.302;2023-06-22T02:10:09;14.70;;;9.25;;
17727;SDS011;8984;49.268;12.302;2023-06-22T02:12:38;56.38;;;9.35;;
17727;SDS011;8984;49.268;12.302;2023-06-22T02:15:07;22.60;;;8.70;;
17727;SDS011;8984;49.268;12.302;2023-06-22T02:17:35;14.15;;;7.35;;
17727;SDS011;8984;49.268;12.302;2023-06-22T02:20:02;28.17;;;8.13;;
17727;SDS011;8984;49.268;12.302;2023-06-22T02:22:34;27.50;;;7.80;;
17727;SDS011;8984;49.268;12.302;2023-06-22T02:25:01;15.02;;;7.50;;
17727;SDS011;8984;49.268;12.302;2023-06-22T02:27:28;11.68;;;8.00;;
17727;SDS011;8984;49.268;12.302;2023-06-22T02:29:55;19.65;;;7.57;;
17727;SDS011;8984;49.268;12.302;2023-06-22T02:32:22;16.55;;;8.93;;
17727;SDS011;8984;49.268;12.302;2023-06-22T02:34:49;16.80;;;8.18;;
17727;SDS011;8984;49.268;12.302;2023-06-22T02:37:16;15.73;;;8.63;;
17727;SDS011;8984;49.268;12.302;2023-06-22T02:39:45;11.27;;;7.80;;
17727;SDS011;8984;49.268;12.302;2023-06-22T02:42:11;13.68;;;8.48;;
17727;SDS011;8984;49.268;12.302;2023-06-22T02:44:38;12.43;;;9.13;;
17727;SDS011;8984;49.268;12.302;2023-06-22T02:47:05;14.03;;;9.13;;
17727;SDS011;8984;49.268;12.302;2023-06-22T02:49:32;17.23;;;9.50;;
17727;SDS011;8984;49.268;12.302;2023-06-22T02:51:58;13.50;;;8.95;;
17727;SDS011;8984;49.268;12.302;2023-06-22T02:54:25;16.60;;;8.95;;
17727;SDS011;8984;49.268;12.302;2023-06-22T02:56:53;18.27;;;9.68;;
17727;SDS011;8984;49.268;12.302;2023-06-22T02:59:20;12.35;;;8.07;;
17727;SDS011;8984;49.268;12.302;2023-06-22T03:01:48;16.67;;;8.93;;
17727;SDS011;8984;49.268;12.302;2023-06-22T03:04:15;11.40;;;8.73;;
17727;SDS011;8984;49.268;12.302;2023-06-22T03:06:42;11.25;;;8.82;;
17727;SDS011;8984;49.268;12.302;2023-06-22T03:09:09;12.98;;;8.50;;
17727;SDS011;8984;49.268;12.302;2023-06-22T03:11:35;21.30;;;9.10;;
17727;SDS011;8984;49.268;12.302;2023-06-22T03:14:04;13.88;;;8.98;;
17727;SDS011;8984;49.268;12.302;2023-06-22T03:16:30;25.15;;;8.80;;
17727;SDS011;8984;49.268;12.302;2023-06-22T03:18:58;15.40;;;9.40;;
17727;SDS011;8984;49.268;12.302;2023-06-22T03:21:26;18.92;;;10.10;;
17727;SDS011;8984;49.268;12.302;2023-06-22T03:23:54;24.90;;;9.93;;
17727;SDS011;8984;49.268;12.302;2023-06-22T03:26:20;38.80;;;11.57;;
17727;SDS011;8984;49.268;12.302;2023-06-22T03:28:48;32.70;;;10.18;;
17727;SDS011;8984;49.268;12.302;2023-06-22T03:31:16;30.75;;;9.98;;
17727;SDS011;8984;49.268;12.302;2023-06-22T03:33:46;48.40;;;10.07;;
17727;SDS011;8984;49.268;12.302;2023-06-22T03:36:13;40.50;;;9.40;;
17727;SDS011;8984;49.268;12.302;2023-06-22T03:38:41;22.73;;;8.80;;
17727;SDS011;8984;49.268;12.302;2023-06-22T03:41:08;18.45;;;9.88;;
17727;SDS011;8984;49.268;12.302;2023-06-22T03:43:34;17.20;;;10.00;;
17727;SDS011;8984;49.268;12.302;2023-06-22T03:46:01;22.05;;;9.63;;
17727;SDS011;8984;49.268;12.302;2023-06-22T03:48:29;31.42;;;9.90;;
17727;SDS011;8984;49.268;12.302;2023-06-22T03:50:56;11.85;;;9.23;;
17727;SDS011;8984;49.268;12.302;2023-06-22T03:53:23;25.50;;;9.98;;
17727;SDS011;8984;49.268;12.302;2023-06-22T03:55:50;23.50;;;10.05;;
17727;SDS011;8984;49.268;12.302;2023-06-22T03:58:17;15.77;;;9.85;;
17727;SDS011;8984;49.268;12.302;2023-06-22T04:00:45;13.18;;;9.88;;
17727;SDS011;8984;49.268;12.302;2023-06-22T04:03:12;21.98;;;9.95;;
17727;SDS011;8984;49.268;12.302;2023-06-22T04:05:40;18.90;;;9.35;;
17727;SDS011;8984;49.268;12.302;2023-06-22T04:08:07;35.40;;;11.25;;
17727;SDS011;8984;49.268;12.302;2023-06-22T04:10:35;99.10;;;11.85;;
17727;SDS011;8984;49.268;12.302;2023-06-22T04:13:01;35.78;;;9.85;;
17727;SDS011;8984;49.268;12.302;2023-06-22T04:15:28;41.63;;;10.50;;
17727;SDS011;8984;49.268;12.302;2023-06-22T04:17:55;44.72;;;10.70;;
17727;SDS011;8984;49.268;12.302;2023-06-22T04:20:22;42.70;;;8.98;;
17727;SDS011;8984;49.268;12.302;2023-06-22T04:22:52;58.38;;;9.15;;
17727;SDS011;8984;49.268;12.302;2023-06-22T04:25:19;40.58;;;8.88;;
17727;SDS011;8984;49.268;12.302;2023-06-22T04:27:46;60.65;;;8.90;;
17727;SDS011;8984;49.268;12.302;2023-06-22T04:30:13;33.70;;;8.98;;
17727;SDS011;8984;49.268;12.302;2023-06-22T04:32:41;44.28;;;8.45;;
17727;SDS011;8984;49.268;12.302;2023-06-22T04:35:08;17.15;;;7.50;;
17727;SDS011;8984;49.268;12.302;2023-06-22T04:37:36;8.27;;;6.50;;
17727;SDS011;8984;49.268;12.302;2023-06-22T04:40:04;14.20;;;7.85;;
17727;SDS011;8984;49.268;12.302;2023-06-22T04:42:33;22.38;;;16.27;;
17727;SDS011;8984;49.268;12.302;2023-06-22T04:45:01;14.23;;;9.77;;
17727;SDS011;8984;49.268;12.302;2023-06-22T04:47:29;9.38;;;7.55;;
17727;SDS011;8984;49.268;12.302;2023-06-22T04:49:55;7.60;;;6.88;;
17727;SDS011;8984;49.268;12.302;2023-06-22T04:52:22;8.63;;;7.15;;
17727;SDS011;8984;49.268;12.302;2023-06-22T04:54:49;7.65;;;6.63;;
17727;SDS011;8984;49.268;12.302;2023-06-22T04:57:22;8.18;;;7.15;;
17727;SDS011;8984;49.268;12.302;2023-06-22T04:59:55;8.20;;;7.30;;
17727;SDS011;8984;49.268;12.302;2023-06-22T05:02:22;8.68;;;7.65;;
17727;SDS011;8984;49.268;12.302;2023-06-22T05:04:56;15.52;;;10.23;;
17727;SDS011;8984;49.268;12.302;2023-06-22T05:07:23;10.68;;;8.68;;
17727;SDS011;8984;49.268;12.302;2023-06-22T05:09:50;8.73;;;6.82;;
17727;SDS011;8984;49.268;12.302;2023-06-22T05:12:17;6.90;;;6.20;;
17727;SDS011;8984;49.268;12.302;2023-06-22T05:14:45;8.23;;;7.38;;
17727;SDS011;8984;49.268;12.302;2023-06-22T05:17:12;8.10;;;7.30;;
17727;SDS011;8984;49.268;12.302;2023-06-22T05:19:39;9.00;;;7.85;;
17727;SDS011;8984;49.268;12.302;2023-06-22T05:22:13;8.60;;;7.07;;
17727;SDS011;8984;49.268;12.302;2023-06-22T05:24:40;7.65;;;6.85;;
17727;SDS011;8984;49.268;12.302;2023-06-22T05:27:07;7.25;;;6.55;;
17727;SDS011;8984;49.268;12.302;2023-06-22T05:29:33;7.55;;;6.78;;
17727;SDS011;8984;49.268;12.302;2023-06-22T05:32:02;8.82;;;7.63;;
17727;SDS011;8984;49.268;12.302;2023-06-22T05:34:29;8.20;;;7.40;;
17727;SDS011;8984;49.268;12.302;2023-06-22T05:36:56;8.63;;;7.72;;
17727;SDS011;8984;49.268;12.302;2023-06-22T05:39:24;15.85;;;9.75;;
17727;SDS011;8984;49.268;12.302;2023-06-22T05:41:51;9.43;;;7.43;;
17727;SDS011;8984;49.268;12.302;2023-06-22T05:44:18;9.30;;;8.00;;
17727;SDS011;8984;49.268;12.302;2023-06-22T05:46:45;8.65;;;7.75;;
17727;SDS011;8984;49.268;12.302;2023-06-22T05:49:14;11.73;;;8.65;;
17727;SDS011;8984;49.268;12.302;2023-06-22T05:51:42;8.95;;;7.50;;
17727;SDS011;8984;49.268;12.302;2023-06-22T05:54:09;8.55;;;7.72;;
17727;SDS011;8984;49.268;12.302;2023-06-22T05:56:38;10.18;;;7.70;;
17727;SDS011;8984;49.268;12.302;2023-06-22T05:59:05;10.93;;;8.43;;
17727;SDS011;8984;49.268;12.302;2023-06-22T06:01:31;10.80;;;7.95;;
17727;SDS011;8984;49.268;12.302;2023-06-22T06:03:59;10.63;;;8.75;;
17727;SDS011;8984;49.268;12.302;2023-06-22T06:06:27;10.68;;;7.90;;
17727;SDS011;8984;49.268;12.302;2023-06-22T06:08:54;8.73;;;7.80;;
17727;SDS011;8984;49.268;12.302;2023-06-22T06:11:21;8.00;;;6.97;;
17727;SDS011;8984;49.268;12.302;2023-06-22T06:13:48;6.97;;;6.10;;
17727;SDS011;8984;49.268;12.302;2023-06-22T06:16:15;7.13;;;6.03;;
17727;SDS011;8984;49.268;12.302;2023-06-22T06:18:42;7.40;;;6.40;;
17727;SDS011;8984;49.268;12.302;2023-06-22T06:21:09;8.25;;;5.50;;
17727;SDS011;8984;49.268;12.302;2023-06-22T06:23:37;8.27;;;6.40;;
17727;SDS011;8984;49.268;12.302;2023-06-22T06:26:03;9.63;;;5.60;;
17727;SDS011;8984;49.268;12.302;2023-06-22T06:28:32;9.48;;;5.90;;
17727;SDS011;8984;49.268;12.302;2023-06-22T06:30:58;7.15;;;5.40;;
17727;SDS011;8984;49.268;12.302;2023-06-22T06:33:25;6.50;;;5.03;;
17727;SDS011;8984;49.268;12.302;2023-06-22T06:35:52;8.23;;;5.88;;
17727;SDS011;8984;49.268;12.302;2023-06-22T06:38:20;7.82;;;5.47;;
17727;SDS011;8984;49.268;12.302;2023-06-22T06:40:50;7.97;;;5.00;;
17727;SDS011;8984;49.268;12.302;2023-06-22T06:43:17;7.35;;;4.90;;
17727;SDS011;8984;49.268;12.302;2023-06-22T06:45:43;7.30;;;5.07;;
17727;SDS011;8984;49.268;12.302;2023-06-22T06:48:10;7.20;;;5.68;;
17727;SDS011;8984;49.268;12.302;2023-06-22T06:50:37;6.50;;;4.82;;
17727;SDS011;8984;49.268;12.302;2023-06-22T06:53:03;6.38;;;5.57;;
17727;SDS011;8984;49.268;12.302;2023-06-22T06:55:31;5.72;;;4.95;;
17727;SDS011;8984;49.268;12.302;2023-06-22T06:58:00;8.25;;;4.60;;
17727;SDS011;8984;49.268;12.302;2023-06-22T07:00:29;9.18;;;5.43;;
17727;SDS011;8984;49.268;12.302;2023-06-22T07:02:56;6.18;;;4.90;;
17727;SDS011;8984;49.268;12.302;2023-06-22T07:05:22;5.88;;;5.10;;
17727;SDS011;8984;49.268;12.302;2023-06-22T07:07:49;5.13;;;4.30;;
17727;SDS011;8984;49.268;12.302;2023-06-22T07:10:16;6.05;;;4.43;;
17727;SDS011;8984;49.268;12.302;2023-06-22T07:12:42;5.95;;;4.63;;
17727;SDS011;8984;49.268;12.302;2023-06-22T07:15:11;9.27;;;5.10;;
17727;SDS011;8984;49.268;12.302;2023-06-22T07:17:38;8.90;;;5.10;;
17727;SDS011;8984;49.268;12.302;2023-06-22T07:20:06;6.10;;;4.90;;
17727;SDS011;8984;49.268;12.302;2023-06-22T07:22:35;7.53;;;5.15;;
17727;SDS011;8984;49.268;12.302;2023-06-22T07:25:02;5.20;;;4.55;;
17727;SDS011;8984;49.268;12.302;2023-06-22T07:27:34;6.18;;;4.47;;
17727;SDS011;8984;49.268;12.302;2023-06-22T07:30:03;6.85;;;4.88;;
17727;SDS011;8984;49.268;12.302;2023-06-22T07:32:39;6.07;;;4.68;;
17727;SDS011;8984;49.268;12.302;2023-06-22T07:35:31;8.07;;;4.63;;
17727;SDS011;8984;49.268;12.302;2023-06-22T07:38:41;6.97;;;5.07;;
17727;SDS011;8984;49.268;12.302;2023-06-22T07:41:26;6.15;;;4.75;;
17727;SDS011;8984;49.268;12.302;2023-06-22T07:43:54;5.38;;;4.43;;
17727;SDS011;8984;49.268;12.302;2023-06-22T07:46:22;7.63;;;5.40;;
17727;SDS011;8984;49.268;12.302;2023-06-22T07:48:56;8.00;;;4.82;;
17727;SDS011;8984;49.268;12.302;2023-06-22T07:51:26;7.25;;;4.97;;
17727;SDS011;8984;49.268;12.302;2023-06-22T07:53:54;6.95;;;4.82;;
17727;SDS011;8984;49.268;12.302;2023-06-22T07:56:22;10.43;;;4.85;;
17727;SDS011;8984;49.268;12.302;2023-06-22T07:58:51;8.88;;;4.90;;
17727;SDS011;8984;49.268;12.302;2023-06-22T08:01:19;7.47;;;4.90;;
17727;SDS011;8984;49.268;12.302;2023-06-22T08:03:47;9.75;;;4.80;;
17727;SDS011;8984;49.268;12.302;2023-06-22T08:06:15;5.78;;;4.50;;
17727;SDS011;8984;49.268;12.302;2023-06-22T08:08:42;6.43;;;4.93;;
17727;SDS011;8984;49.268;12.302;2023-06-22T08:11:13;7.35;;;4.53;;
17727;SDS011;8984;49.268;12.302;2023-06-22T08:13:39;7.95;;;4.75;;
17727;SDS011;8984;49.268;12.302;2023-06-22T08:16:06;9.38;;;4.07;;
17727;SDS011;8984;49.268;12.302;2023-06-22T08:18:33;7.85;;;5.53;;
17727;SDS011;8984;49.268;12.302;2023-06-22T08:21:00;5.80;;;4.13;;
17727;SDS011;8984;49.268;12.302;2023-06-22T08:23:28;5.60;;;4.07;;
17727;SDS011;8984;49.268;12.302;2023-06-22T08:25:55;6.95;;;4.25;;
17727;SDS011;8984;49.268;12.302;2023-06-22T08:28:21;5.78;;;4.55;;
17727;SDS011;8984;49.268;12.302;2023-06-22T08:30:48;6.93;;;4.57;;
17727;SDS011;8984;49.268;12.302;2023-06-22T08:33:15;8.48;;;5.05;;
17727;SDS011;8984;49.268;12.302;2023-06-22T08:35:42;9.82;;;4.43;;
17727;SDS011;8984;49.268;12.302;2023-06-22T08:38:09;7.35;;;4.13;;
17727;SDS011;8984;49.268;12.302;2023-06-22T08:40:40;6.68;;;4.35;;
17727;SDS011;8984;49.268;12.302;2023-06-22T08:43:07;7.82;;;4.32;;
17727;SDS011;8984;49.268;12.302;2023-06-22T08:45:33;8.18;;;4.32;;
17727;SDS011;8984;49.268;12.302;2023-06-22T08:48:00;9.07;;;4.60;;
17727;SDS011;8984;49.268;12.302;2023-06-22T08:50:27;7.65;;;4.45;;
17727;SDS011;8984;49.268;12.302;2023-06-22T08:52:53;5.80;;;3.88;;
17727;SDS011;8984;49.268;12.302;2023-06-22T08:55:20;7.03;;;4.55;;
17727;SDS011;8984;49.268;12.302;2023-06-22T08:57:48;6.40;;;3.70;;
17727;SDS011;8984;49.268;12.302;2023-06-22T09:00:16;6.10;;;3.92;;
17727;SDS011;8984;49.268;12.302;2023-06-22T09:05:20;6.82;;;4.25;;
17727;SDS011;8984;49.268;12.302;2023-06-22T09:07:47;6.57;;;4.22;;
17727;SDS011;8984;49.268;12.302;2023-06-22T09:10:13;6.20;;;3.97;;
17727;SDS011;8984;49.268;12.302;2023-06-22T09:12:40;8.35;;;3.50;;
17727;SDS011;8984;49.268;12.302;2023-06-22T09:15:09;6.13;;;3.80;;
17727;SDS011;8984;49.268;12.302;2023-06-22T09:17:35;9.20;;;4.15;;
17727;SDS011;8984;49.268;12.302;2023-06-22T09:20:03;8.20;;;4.32;;
17727;SDS011;8984;49.268;12.302;2023-06-22T09:22:30;4.85;;;3.58;;
17727;SDS011;8984;49.268;12.302;2023-06-22T09:24:57;6.25;;;3.80;;
17727;SDS011;8984;49.268;12.302;2023-06-22T09:27:24;6.95;;;3.88;;
17727;SDS011;8984;49.268;12.302;2023-06-22T09:29:51;8.02;;;4.22;;
17727;SDS011;8984;49.268;12.302;2023-06-22T09:32:19;6.07;;;3.58;;
17727;SDS011;8984;49.268;12.302;2023-06-22T09:34:46;7.50;;;3.60;;
17727;SDS011;8984;49.268;12.302;2023-06-22T09:37:13;11.27;;;4.40;;
17727;SDS011;8984;49.268;12.302;2023-06-22T09:39:40;8.27;;;3.95;;
17727;SDS011;8984;49.268;12.302;2023-06-22T09:42:06;7.53;;;3.85;;
17727;SDS011;8984;49.268;12.302;2023-06-22T09:44:34;7.65;;;3.92;;
17727;SDS011;8984;49.268;12.302;2023-06-22T09:47:00;7.97;;;3.80;;
17727;SDS011;8984;49.268;12.302;2023-06-22T09:49:29;10.57;;;3.90;;
17727;SDS011;8984;49.268;12.302;2023-06-22T09:51:57;8.50;;;4.07;;
17727;SDS011;8984;49.268;12.302;2023-06-22T09:54:23;10.50;;;4.38;;
17727;SDS011;8984;49.268;12.302;2023-06-22T09:56:50;9.85;;;4.10;;
17727;SDS011;8984;49.268;12.302;2023-06-22T09:59:17;6.97;;;4.03;;
17727;SDS011;8984;49.268;12.302;2023-06-22T10:01:44;7.25;;;4.05;;
17727;SDS011;8984;49.268;12.302;2023-06-22T10:04:11;6.70;;;3.88;;
17727;SDS011;8984;49.268;12.302;2023-06-22T10:06:41;9.68;;;4.22;;
17727;SDS011;8984;49.268;12.302;2023-06-22T10:09:14;9.23;;;3.90;;
17727;SDS011;8984;49.268;12.302;2023-06-22T10:11:51;7.20;;;4.15;;
17727;SDS011;8984;49.268;12.302;2023-06-22T10:14:20;6.93;;;3.97;;
17727;SDS011;8984;49.268;12.302;2023-06-22T10:16:59;9.88;;;3.83;;
17727;SDS011;8984;49.268;12.302;2023-06-22T10:20:00;7.63;;;3.70;;
17727;SDS011;8984;49.268;12.302;2023-06-22T10:22:37;9.88;;;4.00;;
17727;SDS011;8984;49.268;12.302;2023-06-22T10:25:12;7.90;;;3.90;;
17727;SDS011;8984;49.268;12.302;2023-06-22T10:27:56;7.78;;;3.55;;
17727;SDS011;8984;49.268;12.302;2023-06-22T10:30:34;7.97;;;3.97;;
17727;SDS011;8984;49.268;12.302;2023-06-22T10:33:08;6.82;;;3.63;;
17727;SDS011;8984;49.268;12.302;2023-06-22T10:35:36;6.78;;;3.70;;
17727;SDS011;8984;49.268;12.302;2023-06-22T10:38:09;7.07;;;3.90;;
17727;SDS011;8984;49.268;12.302;2023-06-22T10:40:41;13.60;;;4.28;;
17727;SDS011;8984;49.268;12.302;2023-06-22T10:43:11;7.13;;;4.28;;
17727;SDS011;8984;49.268;12.302;2023-06-22T10:45:52;6.63;;;3.75;;
17727;SDS011;8984;49.268;12.302;2023-06-22T10:48:21;8.43;;;3.90;;
17727;SDS011;8984;49.268;12.302;2023-06-22T10:50:49;7.35;;;3.50;;
17727;SDS011;8984;49.268;12.302;2023-06-22T10:53:19;5.72;;;3.80;;
17727;SDS011;8984;49.268;12.302;2023-06-22T10:55:52;9.13;;;3.80;;
17727;SDS011;8984;49.268;12.302;2023-06-22T10:58:20;12.27;;;4.38;;
17727;SDS011;8984;49.268;12.302;2023-06-22T11:00:57;8.57;;;3.53;;
17727;SDS011;8984;49.268;12.302;2023-06-22T11:03:35;9.77;;;4.00;;
17727;SDS011;8984;49.268;12.302;2023-06-22T11:06:05;6.50;;;3.83;;
17727;SDS011;8984;49.268;12.302;2023-06-22T11:08:46;6.13;;;3.42;;
17727;SDS011;8984;49.268;12.302;2023-06-22T11:11:16;13.18;;;4.30;;
17727;SDS011;8984;49.268;12.302;2023-06-22T11:13:45;6.75;;;3.42;;
17727;SDS011;8984;49.268;12.302;2023-06-22T11:16:16;7.22;;;3.70;;
17727;SDS011;8984;49.268;12.302;2023-06-22T11:18:45;8.68;;;3.70;;
17727;SDS011;8984;49.268;12.302;2023-06-22T11:21:21;6.97;;;3.75;;
17727;SDS011;8984;49.268;12.302;2023-06-22T11:23:52;7.80;;;3.75;;
17727;SDS011;8984;49.268;12.302;2023-06-22T11:26:22;11.95;;;4.20;;
17727;SDS011;8984;49.268;12.302;2023-06-22T11:28:57;7.80;;;3.97;;
17727;SDS011;8984;49.268;12.302;2023-06-22T11:31:30;10.43;;;3.92;;
17727;SDS011;8984;49.268;12.302;2023-06-22T11:34:01;9.40;;;4.18;;
17727;SDS011;8984;49.268;12.302;2023-06-22T11:36:54;5.38;;;3.97;;
17727;SDS011;8984;49.268;12.302;2023-06-22T11:39:31;9.07;;;3.83;;
17727;SDS011;8984;49.268;12.302;2023-06-22T11:42:09;12.07;;;4.50;;
17727;SDS011;8984;49.268;12.302;2023-06-22T11:44:38;11.65;;;4.40;;
17727;SDS011;8984;49.268;12.302;2023-06-22T11:47:15;10.68;;;4.15;;
17727;SDS011;8984;49.268;12.302;2023-06-22T11:49:42;9.70;;;4.00;;
17727;SDS011;8984;49.268;12.302;2023-06-22T11:52:11;10.00;;;4.68;;
17727;SDS011;8984;49.268;12.302;2023-06-22T11:54:44;10.55;;;3.97;;
17727;SDS011;8984;49.268;12.302;2023-06-22T11:57:25;10.52;;;4.25;;
17727;SDS011;8984;49.268;12.302;2023-06-22T11:59:52;9.50;;;4.55;;
17727;SDS011;8984;49.268;12.302;2023-06-22T12:02:20;10.40;;;4.25;;
17727;SDS011;8984;49.268;12.302;2023-06-22T12:04:48;9.63;;;4.05;;
17727;SDS011;8984;49.268;12.302;2023-06-22T12:07:18;6.60;;;4.00;;
17727;SDS011;8984;49.268;12.302;2023-06-22T12:09:52;8.38;;;4.10;;
17727;SDS011;8984;49.268;12.302;2023-06-22T12:12:23;10.02;;;4.43;;
17727;SDS011;8984;49.268;12.302;2023-06-22T12:14:52;8.90;;;4.32;;
17727;SDS011;8984;49.268;12.302;2023-06-22T12:17:20;12.40;;;4.60;;
17727;SDS011;8984;49.268;12.302;2023-06-22T12:19:49;10.13;;;4.60;;
17727;SDS011;8984;49.268;12.302;2023-06-22T12:22:21;10.80;;;4.30;;
17727;SDS011;8984;49.268;12.302;2023-06-22T12:24:55;5.95;;;4.13;;
17727;SDS011;8984;49.268;12.302;2023-06-22T12:27:23;7.55;;;4.25;;
17727;SDS011;8984;49.268;12.302;2023-06-22T12:29:53;11.75;;;4.68;;
17727;SDS011;8984;49.268;12.302;2023-06-22T12:32:22;9.75;;;4.90;;
17727;SDS011;8984;49.268;12.302;2023-06-22T12:34:51;11.82;;;4.57;;
17727;SDS011;8984;49.268;12.302;2023-06-22T12:37:20;9.70;;;4.25;;
17727;SDS011;8984;49.268;12.302;2023-06-22T12:39:48;8.15;;;3.97;;
17727;SDS011;8984;49.268;12.302;2023-06-22T12:42:18;10.35;;;4.50;;
17727;SDS011;8984;49.268;12.302;2023-06-22T12:44:49;9.52;;;4.50;;
17727;SDS011;8984;49.268;12.302;2023-06-22T12:47:17;7.85;;;4.20;;
17727;SDS011;8984;49.268;12.302;2023-06-22T12:49:49;10.38;;;4.75;;
17727;SDS011;8984;49.268;12.302;2023-06-22T12:52:25;8.45;;;4.07;;
17727;SDS011;8984;49.268;12.302;2023-06-22T12:55:07;12.10;;;5.13;;
17727;SDS011;8984;49.268;12.302;2023-06-22T12:57:53;8.02;;;4.32;;
17727;SDS011;8984;49.268;12.302;2023-06-22T13:00:22;14.45;;;4.90;;
17727;SDS011;8984;49.268;12.302;2023-06-22T13:02:53;9.82;;;4.43;;
17727;SDS011;8984;49.268;12.302;2023-06-22T13:05:27;13.60;;;4.55;;
17727;SDS011;8984;49.268;12.302;2023-06-22T13:07:55;8.00;;;4.25;;
17727;SDS011;8984;49.268;12.302;2023-06-22T13:10:37;9.73;;;4.50;;
17727;SDS011;8984;49.268;12.302;2023-06-22T13:13:05;8.43;;;4.47;;
17727;SDS011;8984;49.268;12.302;2023-06-22T13:15:33;9.85;;;4.40;;
17727;SDS011;8984;49.268;12.302;2023-06-22T13:18:01;8.85;;;4.88;;
17727;SDS011;8984;49.268;12.302;2023-06-22T13:20:37;9.75;;;4.30;;
17727;SDS011;8984;49.268;12.302;2023-06-22T13:23:11;10.40;;;4.30;;
17727;SDS011;8984;49.268;12.302;2023-06-22T13:25:39;6.63;;;4.20;;
17727;SDS011;8984;49.268;12.302;2023-06-22T13:28:12;14.38;;;5.30;;
17727;SDS011;8984;49.268;12.302;2023-06-22T13:30:44;9.45;;;4.22;;
17727;SDS011;8984;49.268;12.302;2023-06-22T13:33:16;9.90;;;4.35;;
17727;SDS011;8984;49.268;12.302;2023-06-22T13:35:46;10.05;;;4.50;;
17727;SDS011;8984;49.268;12.302;2023-06-22T13:38:22;7.78;;;3.63;;
17727;SDS011;8984;49.268;12.302;2023-06-22T13:41:18;13.60;;;4.72;;
17727;SDS011;8984;49.268;12.302;2023-06-22T13:43:45;12.40;;;4.68;;
17727;SDS011;8984;49.268;12.302;2023-06-22T13:46:11;13.50;;;4.82;;
17727;SDS011;8984;49.268;12.302;2023-06-22T13:48:38;10.27;;;4.50;;
17727;SDS011;8984;49.268;12.302;2023-06-22T13:51:05;9.20;;;5.13;;
17727;SDS011;8984;49.268;12.302;2023-06-22T13:53:32;9.95;;;4.80;;
17727;SDS011;8984;49.268;12.302;2023-06-22T13:55:58;10.10;;;5.00;;
17727;SDS011;8984;49.268;12.302;2023-06-22T13:58:27;9.73;;;4.38;;
17727;SDS011;8984;49.268;12.302;2023-06-22T14:00:53;12.23;;;4.75;;
17727;SDS011;8984;49.268;12.302;2023-06-22T14:03:20;16.58;;;4.85;;
17727;SDS011;8984;49.268;12.302;2023-06-22T14:05:47;7.20;;;4.32;;
17727;SDS011;8984;49.268;12.302;2023-06-22T14:08:14;19.05;;;5.40;;
17727;SDS011;8984;49.268;12.302;2023-06-22T14:10:42;8.90;;;4.50;;
17727;SDS011;8984;49.268;12.302;2023-06-22T14:13:09;12.30;;;4.50;;
17727;SDS011;8984;49.268;12.302;2023-06-22T14:15:37;14.45;;;4.43;;
17727;SDS011;8984;49.268;12.302;2023-06-22T14:18:03;10.50;;;5.00;;
17727;SDS011;8984;49.268;12.302;2023-06-22T14:20:30;9.73;;;4.55;;
17727;SDS011;8984;49.268;12.302;2023-06-22T14:22:57;9.93;;;4.63;;
17727;SDS011;8984;49.268;12.302;2023-06-22T14:25:24;12.32;;;4.70;;
17727;SDS011;8984;49.268;12.302;2023-06-22T14:27:50;13.68;;;4.70;;
17727;SDS011;8984;49.268;12.302;2023-06-22T14:30:17;10.45;;;4.57;;
17727;SDS011;8984;49.268;12.302;2023-06-22T14:32:45;13.32;;;4.90;;
17727;SDS011;8984;49.268;12.302;2023-06-22T14:35:12;16.30;;;4.93;;
17727;SDS011;8984;49.268;12.302;2023-06-22T14:37:39;14.38;;;4.90;;
17727;SDS011;8984;49.268;12.302;2023-06-22T14:40:06;8.00;;;4.55;;
17727;SDS011;8984;49.268;12.302;2023-06-22T14:42:33;11.32;;;4.47;;
17727;SDS011;8984;49.268;12.302;2023-06-22T14:45:00;10.15;;;4.43;;
17727;SDS011;8984;49.268;12.302;2023-06-22T14:47:27;9.50;;;4.20;;
17727;SDS011;8984;49.268;12.302;2023-06-22T14:49:55;10.77;;;4.97;;
17727;SDS011;8984;49.268;12.302;2023-06-22T14:52:22;14.13;;;5.03;;
17727;SDS011;8984;49.268;12.302;2023-06-22T14:54:48;9.75;;;4.45;;